sensor_id;sensor_type;location;lat;lon;timestamp;temperature;humidity
65864;SHT30;52639;51.180;20.460;2023-03-26T00:04:03;4.93;85.67
65864;SHT30;52639;51.180;20.460;2023-03-26T00:08:07;4.98;85.87
65864;SHT30;52639;51.180;20.460;2023-03-26T00:12:09;5.03;86.23
65864;SHT30;52639;51.180;20.460;2023-03-26T00:16:16;5.00;85.56
65864;SHT30;52639;51.180;20.460;2023-03-26T00:20:20;5.03;85.90
65864;SHT30;52639;51.180;20.460;2023-03-26T00:24:23;5.10;85.33
65864;SHT30;52639;51.180;20.460;2023-03-26T00:28:29;5.15;85.50
65864;SHT30;52639;51.180;20.460;2023-03-26T00:32:34;5.30;85.24
65864;SHT30;52639;51.180;20.460;2023-03-26T00:36:36;5.41;85.13
65864;SHT30;52639;51.180;20.460;2023-03-26T00:40:42;5.41;85.09
65864;SHT30;52639;51.180;20.460;2023-03-26T00:44:48;5.39;84.89
65864;SHT30;52639;51.180;20.460;2023-03-26T00:48:56;5.45;84.16
65864;SHT30;52639;51.180;20.460;2023-03-26T00:53:00;5.44;84.82
65864;SHT30;52639;51.180;20.460;2023-03-26T00:57:03;5.37;84.85
65864;SHT30;52639;51.180;20.460;2023-03-26T01:01:09;5.37;84.75
65864;SHT30;52639;51.180;20.460;2023-03-26T01:05:46;5.15;84.55
65864;SHT30;52639;51.180;20.460;2023-03-26T01:09:53;4.94;84.90
65864;SHT30;52639;51.180;20.460;2023-03-26T01:13:58;4.77;84.98
65864;SHT30;52639;51.180;20.460;2023-03-26T01:18:02;4.45;85.43
65864;SHT30;52639;51.180;20.460;2023-03-26T01:22:14;4.33;85.98
65864;SHT30;52639;51.180;20.460;2023-03-26T01:30:51;3.86;85.79
65864;SHT30;52639;51.180;20.460;2023-03-26T01:35:16;3.79;85.72
65864;SHT30;52639;51.180;20.460;2023-03-26T01:39:25;3.74;85.82
65864;SHT30;52639;51.180;20.460;2023-03-26T01:43:36;3.60;85.76
65864;SHT30;52639;51.180;20.460;2023-03-26T01:47:41;3.55;86.24
65864;SHT30;52639;51.180;20.460;2023-03-26T01:51:46;3.48;86.14
65864;SHT30;52639;51.180;20.460;2023-03-26T01:55:54;3.48;85.76
65864;SHT30;52639;51.180;20.460;2023-03-26T02:00:24;3.60;85.24
65864;SHT30;52639;51.180;20.460;2023-03-26T02:04:33;3.79;85.32
65864;SHT30;52639;51.180;20.460;2023-03-26T02:08:41;4.06;85.09
65864;SHT30;52639;51.180;20.460;2023-03-26T02:12:48;4.23;84.68
65864;SHT30;52639;51.180;20.460;2023-03-26T02:16:52;4.45;85.38
65864;SHT30;52639;51.180;20.460;2023-03-26T02:20:57;4.64;84.89
65864;SHT30;52639;51.180;20.460;2023-03-26T02:25:00;4.69;85.78
65864;SHT30;52639;51.180;20.460;2023-03-26T02:29:03;4.73;84.93
65864;SHT30;52639;51.180;20.460;2023-03-26T02:33:07;4.94;85.45
65864;SHT30;52639;51.180;20.460;2023-03-26T02:37:15;4.98;84.79
65864;SHT30;52639;51.180;20.460;2023-03-26T02:41:19;5.08;84.66
65864;SHT30;52639;51.180;20.460;2023-03-26T02:45:22;5.21;84.49
65864;SHT30;52639;51.180;20.460;2023-03-26T02:49:26;5.25;85.15
65864;SHT30;52639;51.180;20.460;2023-03-26T02:53:29;5.35;85.43
65864;SHT30;52639;51.180;20.460;2023-03-26T02:57:32;5.38;85.01
65864;SHT30;52639;51.180;20.460;2023-03-26T03:01:35;5.42;84.63
65864;SHT30;52639;51.180;20.460;2023-03-26T03:05:44;5.48;84.89
65864;SHT30;52639;51.180;20.460;2023-03-26T03:09:47;5.55;84.36
65864;SHT30;52639;51.180;20.460;2023-03-26T03:13:51;5.55;84.21
65864;SHT30;52639;51.180;20.460;2023-03-26T03:17:54;5.61;84.71
65864;SHT30;52639;51.180;20.460;2023-03-26T03:21:59;5.63;84.03
65864;SHT30;52639;51.180;20.460;2023-03-26T03:26:02;5.61;83.94
65864;SHT30;52639;51.180;20.460;2023-03-26T03:30:06;5.66;84.18
65864;SHT30;52639;51.180;20.460;2023-03-26T03:34:09;5.71;84.83
65864;SHT30;52639;51.180;20.460;2023-03-26T03:38:13;5.78;83.77
65864;SHT30;52639;51.180;20.460;2023-03-26T03:42:16;5.73;84.45
65864;SHT30;52639;51.180;20.460;2023-03-26T03:46:20;5.79;84.75
65864;SHT30;52639;51.180;20.460;2023-03-26T03:50:23;5.86;84.71
65864;SHT30;52639;51.180;20.460;2023-03-26T03:54:27;5.91;84.30
65864;SHT30;52639;51.180;20.460;2023-03-26T03:58:30;5.96;83.95
65864;SHT30;52639;51.180;20.460;2023-03-26T04:02:34;5.92;83.60
65864;SHT30;52639;51.180;20.460;2023-03-26T04:06:37;5.86;83.95
65864;SHT30;52639;51.180;20.460;2023-03-26T04:10:41;5.86;84.55
65864;SHT30;52639;51.180;20.460;2023-03-26T04:14:44;5.96;84.22
65864;SHT30;52639;51.180;20.460;2023-03-26T04:18:47;6.07;83.91
65864;SHT30;52639;51.180;20.460;2023-03-26T04:22:50;6.06;83.35
65864;SHT30;52639;51.180;20.460;2023-03-26T04:26:55;6.09;83.48
65864;SHT30;52639;51.180;20.460;2023-03-26T04:31:02;6.17;83.64
65864;SHT30;52639;51.180;20.460;2023-03-26T04:35:06;6.19;83.60
65864;SHT30;52639;51.180;20.460;2023-03-26T04:39:10;6.26;83.63
65864;SHT30;52639;51.180;20.460;2023-03-26T04:43:16;6.36;83.30
65864;SHT30;52639;51.180;20.460;2023-03-26T04:47:19;6.34;83.81
65864;SHT30;52639;51.180;20.460;2023-03-26T04:51:26;6.26;83.49
65864;SHT30;52639;51.180;20.460;2023-03-26T04:55:41;6.16;83.49
65864;SHT30;52639;51.180;20.460;2023-03-26T04:59:48;6.05;84.07
65864;SHT30;52639;51.180;20.460;2023-03-26T05:03:51;6.02;83.98
65864;SHT30;52639;51.180;20.460;2023-03-26T05:07:54;6.02;83.94
65864;SHT30;52639;51.180;20.460;2023-03-26T05:11:57;6.07;84.71
65864;SHT30;52639;51.180;20.460;2023-03-26T05:16:01;6.30;85.09
65864;SHT30;52639;51.180;20.460;2023-03-26T05:20:06;6.88;83.95
65864;SHT30;52639;51.180;20.460;2023-03-26T05:24:12;7.02;82.44
65864;SHT30;52639;51.180;20.460;2023-03-26T05:28:15;6.90;83.08
65864;SHT30;52639;51.180;20.460;2023-03-26T05:32:23;6.81;83.28
65864;SHT30;52639;51.180;20.460;2023-03-26T05:36:28;6.77;84.46
65864;SHT30;52639;51.180;20.460;2023-03-26T05:40:31;6.80;83.62
65864;SHT30;52639;51.180;20.460;2023-03-26T05:44:34;6.88;83.18
65864;SHT30;52639;51.180;20.460;2023-03-26T05:48:38;7.33;82.33
65864;SHT30;52639;51.180;20.460;2023-03-26T05:52:41;7.45;82.06
65864;SHT30;52639;51.180;20.460;2023-03-26T05:56:44;7.43;82.56
65864;SHT30;52639;51.180;20.460;2023-03-26T06:00:47;7.58;82.16
65864;SHT30;52639;51.180;20.460;2023-03-26T06:04:51;7.93;81.39
65864;SHT30;52639;51.180;20.460;2023-03-26T06:08:54;8.11;80.84
65864;SHT30;52639;51.180;20.460;2023-03-26T06:12:57;8.52;80.03
65864;SHT30;52639;51.180;20.460;2023-03-26T06:17:00;8.91;79.01
65864;SHT30;52639;51.180;20.460;2023-03-26T06:21:05;8.61;80.07
65864;SHT30;52639;51.180;20.460;2023-03-26T06:25:09;8.68;79.57
65864;SHT30;52639;51.180;20.460;2023-03-26T06:29:11;9.32;78.52
65864;SHT30;52639;51.180;20.460;2023-03-26T06:33:14;10.91;73.44
65864;SHT30;52639;51.180;20.460;2023-03-26T06:37:19;10.05;76.18
65864;SHT30;52639;51.180;20.460;2023-03-26T06:41:22;9.56;78.21
65864;SHT30;52639;51.180;20.460;2023-03-26T06:45:25;9.08;78.95
65864;SHT30;52639;51.180;20.460;2023-03-26T06:49:28;9.12;79.49
65864;SHT30;52639;51.180;20.460;2023-03-26T06:53:33;8.95;79.52
65864;SHT30;52639;51.180;20.460;2023-03-26T06:57:36;9.04;79.60
65864;SHT30;52639;51.180;20.460;2023-03-26T07:01:39;9.11;78.56
65864;SHT30;52639;51.180;20.460;2023-03-26T07:05:44;9.14;78.25
65864;SHT30;52639;51.180;20.460;2023-03-26T07:09:50;9.39;77.70
65864;SHT30;52639;51.180;20.460;2023-03-26T07:13:54;9.53;76.25
65864;SHT30;52639;51.180;20.460;2023-03-26T07:17:57;9.70;76.93
65864;SHT30;52639;51.180;20.460;2023-03-26T07:22:01;10.40;75.27
65864;SHT30;52639;51.180;20.460;2023-03-26T07:26:21;10.95;74.11
65864;SHT30;52639;51.180;20.460;2023-03-26T07:30:31;13.22;68.80
65864;SHT30;52639;51.180;20.460;2023-03-26T07:34:48;14.65;68.30
65864;SHT30;52639;51.180;20.460;2023-03-26T07:38:55;12.21;68.34
65864;SHT30;52639;51.180;20.460;2023-03-26T07:43:13;11.05;75.62
65864;SHT30;52639;51.180;20.460;2023-03-26T07:47:23;11.40;73.35
65864;SHT30;52639;51.180;20.460;2023-03-26T07:51:30;13.40;71.08
65864;SHT30;52639;51.180;20.460;2023-03-26T07:55:35;18.22;57.75
65864;SHT30;52639;51.180;20.460;2023-03-26T07:59:57;18.80;57.56
65864;SHT30;52639;51.180;20.460;2023-03-26T08:04:07;22.28;43.47
65864;SHT30;52639;51.180;20.460;2023-03-26T08:08:15;22.97;52.30
65864;SHT30;52639;51.180;20.460;2023-03-26T08:12:29;22.98;49.77
65864;SHT30;52639;51.180;20.460;2023-03-26T08:16:45;24.01;48.84
65864;SHT30;52639;51.180;20.460;2023-03-26T08:21:01;23.11;52.20
65864;SHT30;52639;51.180;20.460;2023-03-26T08:25:27;20.66;56.93
65864;SHT30;52639;51.180;20.460;2023-03-26T08:29:37;17.38;60.93
65864;SHT30;52639;51.180;20.460;2023-03-26T08:33:55;14.69;63.56
65864;SHT30;52639;51.180;20.460;2023-03-26T08:38:04;20.30;50.93
65864;SHT30;52639;51.180;20.460;2023-03-26T08:42:38;20.18;50.31
65864;SHT30;52639;51.180;20.460;2023-03-26T08:47:10;14.32;66.23
65864;SHT30;52639;51.180;20.460;2023-03-26T08:51:44;11.78;68.01
65864;SHT30;52639;51.180;20.460;2023-03-26T08:55:56;11.06;68.42
65864;SHT30;52639;51.180;20.460;2023-03-26T09:09:49;12.20;64.87
65864;SHT30;52639;51.180;20.460;2023-03-26T09:19:01;10.33;69.10
65864;SHT30;52639;51.180;20.460;2023-03-26T09:28:17;10.35;69.45
65864;SHT30;52639;51.180;20.460;2023-03-26T09:37:01;11.22;66.96
65864;SHT30;52639;51.180;20.460;2023-03-26T09:41:16;12.56;64.25
65864;SHT30;52639;51.180;20.460;2023-03-26T09:45:44;13.48;63.23
65864;SHT30;52639;51.180;20.460;2023-03-26T09:49:55;15.28;58.46
65864;SHT30;52639;51.180;20.460;2023-03-26T09:54:31;13.64;63.83
65864;SHT30;52639;51.180;20.460;2023-03-26T10:03:30;14.00;59.87
65864;SHT30;52639;51.180;20.460;2023-03-26T10:07:52;14.09;62.09
65864;SHT30;52639;51.180;20.460;2023-03-26T10:12:06;13.03;64.67
65864;SHT30;52639;51.180;20.460;2023-03-26T10:16:20;12.15;66.20
65864;SHT30;52639;51.180;20.460;2023-03-26T10:20:42;12.37;64.46
65864;SHT30;52639;51.180;20.460;2023-03-26T10:25:09;13.51;59.51
65864;SHT30;52639;51.180;20.460;2023-03-26T10:29:46;14.14;60.15
65864;SHT30;52639;51.180;20.460;2023-03-26T10:33:59;14.49;60.08
65864;SHT30;52639;51.180;20.460;2023-03-26T10:38:17;13.75;60.50
65864;SHT30;52639;51.180;20.460;2023-03-26T10:42:42;14.14;58.84
65864;SHT30;52639;51.180;20.460;2023-03-26T10:47:10;14.01;59.06
65864;SHT30;52639;51.180;20.460;2023-03-26T10:51:53;12.89;62.29
65864;SHT30;52639;51.180;20.460;2023-03-26T10:56:11;12.76;60.61
65864;SHT30;52639;51.180;20.460;2023-03-26T11:00:22;13.68;58.85
65864;SHT30;52639;51.180;20.460;2023-03-26T11:04:36;12.92;60.51
65864;SHT30;52639;51.180;20.460;2023-03-26T11:08:47;12.46;60.74
65864;SHT30;52639;51.180;20.460;2023-03-26T11:13:02;12.08;62.60
65864;SHT30;52639;51.180;20.460;2023-03-26T11:17:15;11.49;62.69
65864;SHT30;52639;51.180;20.460;2023-03-26T11:21:25;11.02;63.44
65864;SHT30;52639;51.180;20.460;2023-03-26T11:25:41;10.44;64.76
65864;SHT30;52639;51.180;20.460;2023-03-26T11:29:55;10.24;65.25
65864;SHT30;52639;51.180;20.460;2023-03-26T11:34:10;9.76;67.03
65864;SHT30;52639;51.180;20.460;2023-03-26T11:38:20;9.37;68.82
65864;SHT30;52639;51.180;20.460;2023-03-26T11:42:25;9.56;69.75
65864;SHT30;52639;51.180;20.460;2023-03-26T11:46:34;10.56;67.38
65864;SHT30;52639;51.180;20.460;2023-03-26T11:50:43;10.75;67.44
65864;SHT30;52639;51.180;20.460;2023-03-26T11:54:47;10.48;68.35
65864;SHT30;52639;51.180;20.460;2023-03-26T11:58:55;10.41;67.85
65864;SHT30;52639;51.180;20.460;2023-03-26T12:03:03;10.31;69.05
65864;SHT30;52639;51.180;20.460;2023-03-26T12:07:08;10.55;68.56
65864;SHT30;52639;51.180;20.460;2023-03-26T12:11:11;10.46;68.87
65864;SHT30;52639;51.180;20.460;2023-03-26T12:15:15;10.69;68.14
65864;SHT30;52639;51.180;20.460;2023-03-26T12:19:20;10.61;68.53
65864;SHT30;52639;51.180;20.460;2023-03-26T12:23:42;10.79;68.34
65864;SHT30;52639;51.180;20.460;2023-03-26T12:27:47;11.12;67.75
65864;SHT30;52639;51.180;20.460;2023-03-26T12:31:54;11.06;67.66
65864;SHT30;52639;51.180;20.460;2023-03-26T12:36:15;10.65;68.60
65864;SHT30;52639;51.180;20.460;2023-03-26T12:40:28;10.37;69.30
65864;SHT30;52639;51.180;20.460;2023-03-26T12:44:43;10.25;69.92
65864;SHT30;52639;51.180;20.460;2023-03-26T12:48:47;10.64;69.54
65864;SHT30;52639;51.180;20.460;2023-03-26T12:53:00;10.91;68.25
65864;SHT30;52639;51.180;20.460;2023-03-26T12:57:18;11.37;67.30
65864;SHT30;52639;51.180;20.460;2023-03-26T13:01:27;11.19;68.06
65864;SHT30;52639;51.180;20.460;2023-03-26T13:14:54;11.63;67.43
65864;SHT30;52639;51.180;20.460;2023-03-26T13:19:04;12.11;66.61
65864;SHT30;52639;51.180;20.460;2023-03-26T13:23:13;11.88;66.97
65864;SHT30;52639;51.180;20.460;2023-03-26T13:27:31;11.42;68.25
65864;SHT30;52639;51.180;20.460;2023-03-26T13:31:44;11.19;68.42
65864;SHT30;52639;51.180;20.460;2023-03-26T13:35:58;11.67;67.17
65864;SHT30;52639;51.180;20.460;2023-03-26T13:40:19;11.70;66.09
65864;SHT30;52639;51.180;20.460;2023-03-26T13:44:33;11.61;66.07
65864;SHT30;52639;51.180;20.460;2023-03-26T13:48:43;11.80;64.75
65864;SHT30;52639;51.180;20.460;2023-03-26T13:52:50;11.91;64.08
65864;SHT30;52639;51.180;20.460;2023-03-26T13:57:00;12.42;62.60
65864;SHT30;52639;51.180;20.460;2023-03-26T14:01:10;12.38;62.73
65864;SHT30;52639;51.180;20.460;2023-03-26T14:05:21;12.50;60.66
65864;SHT30;52639;51.180;20.460;2023-03-26T14:09:30;12.82;60.14
65864;SHT30;52639;51.180;20.460;2023-03-26T14:13:42;12.42;58.00
65864;SHT30;52639;51.180;20.460;2023-03-26T14:17:55;12.14;61.16
65864;SHT30;52639;51.180;20.460;2023-03-26T14:22:14;11.67;62.49
65864;SHT30;52639;51.180;20.460;2023-03-26T14:26:30;11.66;62.52
65864;SHT30;52639;51.180;20.460;2023-03-26T14:35:26;12.14;60.93
65864;SHT30;52639;51.180;20.460;2023-03-26T14:39:48;12.35;59.02
65864;SHT30;52639;51.180;20.460;2023-03-26T14:48:57;11.95;60.19
65864;SHT30;52639;51.180;20.460;2023-03-26T14:53:14;11.95;60.93
65864;SHT30;52639;51.180;20.460;2023-03-26T15:07:33;11.95;60.98
65864;SHT30;52639;51.180;20.460;2023-03-26T15:11:49;11.80;62.89
65864;SHT30;52639;51.180;20.460;2023-03-26T15:16:25;11.63;62.62
65864;SHT30;52639;51.180;20.460;2023-03-26T15:30:25;11.44;63.42
65864;SHT30;52639;51.180;20.460;2023-03-26T15:34:56;11.40;63.38
65864;SHT30;52639;51.180;20.460;2023-03-26T15:48:48;10.65;65.14
65864;SHT30;52639;51.180;20.460;2023-03-26T15:53:02;10.22;65.94
65864;SHT30;52639;51.180;20.460;2023-03-26T15:57:18;10.07;66.09
65864;SHT30;52639;51.180;20.460;2023-03-26T16:01:41;10.04;65.98
65864;SHT30;52639;51.180;20.460;2023-03-26T16:10:35;9.70;66.51
65864;SHT30;52639;51.180;20.460;2023-03-26T16:14:43;9.50;66.80
65864;SHT30;52639;51.180;20.460;2023-03-26T16:18:53;9.20;67.22
65864;SHT30;52639;51.180;20.460;2023-03-26T16:23:23;9.02;67.29
65864;SHT30;52639;51.180;20.460;2023-03-26T16:27:29;8.88;67.52
65864;SHT30;52639;51.180;20.460;2023-03-26T16:31:35;8.82;67.51
65864;SHT30;52639;51.180;20.460;2023-03-26T16:35:47;8.82;67.44
65864;SHT30;52639;51.180;20.460;2023-03-26T16:40:36;8.79;67.59
65864;SHT30;52639;51.180;20.460;2023-03-26T16:45:03;8.82;67.61
65864;SHT30;52639;51.180;20.460;2023-03-26T16:49:28;8.86;68.57
65864;SHT30;52639;51.180;20.460;2023-03-26T16:53:38;8.33;70.11
65864;SHT30;52639;51.180;20.460;2023-03-26T16:57:53;7.90;71.64
65864;SHT30;52639;51.180;20.460;2023-03-26T17:02:04;7.51;74.25
65864;SHT30;52639;51.180;20.460;2023-03-26T17:06:32;7.09;74.63
65864;SHT30;52639;51.180;20.460;2023-03-26T17:10:45;6.71;75.59
65864;SHT30;52639;51.180;20.460;2023-03-26T17:15:12;6.50;75.70
65864;SHT30;52639;51.180;20.460;2023-03-26T17:19:26;6.40;76.07
65864;SHT30;52639;51.180;20.460;2023-03-26T17:23:46;6.29;75.52
65864;SHT30;52639;51.180;20.460;2023-03-26T17:28:06;6.14;74.81
65864;SHT30;52639;51.180;20.460;2023-03-26T17:32:18;6.03;75.29
65864;SHT30;52639;51.180;20.460;2023-03-26T17:36:40;5.96;74.77
65864;SHT30;52639;51.180;20.460;2023-03-26T17:40:51;5.81;75.61
65864;SHT30;52639;51.180;20.460;2023-03-26T17:45:07;5.59;75.48
65864;SHT30;52639;51.180;20.460;2023-03-26T17:49:20;5.44;76.05
65864;SHT30;52639;51.180;20.460;2023-03-26T17:53:30;5.38;76.30
65864;SHT30;52639;51.180;20.460;2023-03-26T17:57:39;5.17;76.30
65864;SHT30;52639;51.180;20.460;2023-03-26T18:01:45;5.13;78.44
65864;SHT30;52639;51.180;20.460;2023-03-26T18:06:05;4.87;77.35
65864;SHT30;52639;51.180;20.460;2023-03-26T18:10:28;4.56;77.16
65864;SHT30;52639;51.180;20.460;2023-03-26T18:19:10;4.01;78.45
65864;SHT30;52639;51.180;20.460;2023-03-26T18:23:27;4.03;77.82
65864;SHT30;52639;51.180;20.460;2023-03-26T18:27:35;3.74;78.68
65864;SHT30;52639;51.180;20.460;2023-03-26T18:31:43;3.73;78.62
65864;SHT30;52639;51.180;20.460;2023-03-26T18:35:50;3.55;78.47
65864;SHT30;52639;51.180;20.460;2023-03-26T18:40:06;3.23;79.15
65864;SHT30;52639;51.180;20.460;2023-03-26T18:44:15;3.26;79.36
65864;SHT30;52639;51.180;20.460;2023-03-26T18:48:24;3.26;79.17
65864;SHT30;52639;51.180;20.460;2023-03-26T18:52:31;3.13;79.10
65864;SHT30;52639;51.180;20.460;2023-03-26T18:56:38;2.86;79.67
65864;SHT30;52639;51.180;20.460;2023-03-26T19:00:44;2.85;80.05
65864;SHT30;52639;51.180;20.460;2023-03-26T19:04:51;2.71;80.30
65864;SHT30;52639;51.180;20.460;2023-03-26T19:08:56;2.59;80.05
65864;SHT30;52639;51.180;20.460;2023-03-26T19:13:02;2.56;80.06
65864;SHT30;52639;51.180;20.460;2023-03-26T19:17:09;2.75;80.24
65864;SHT30;52639;51.180;20.460;2023-03-26T19:21:16;2.65;79.55
65864;SHT30;52639;51.180;20.460;2023-03-26T19:25:27;2.65;79.27
65864;SHT30;52639;51.180;20.460;2023-03-26T19:29:37;2.65;79.71
65864;SHT30;52639;51.180;20.460;2023-03-26T19:33:45;2.62;79.58
65864;SHT30;52639;51.180;20.460;2023-03-26T19:37:56;2.52;79.80
65864;SHT30;52639;51.180;20.460;2023-03-26T19:42:04;2.35;80.16
65864;SHT30;52639;51.180;20.460;2023-03-26T19:46:13;2.15;80.45
65864;SHT30;52639;51.180;20.460;2023-03-26T19:50:22;2.01;80.42
65864;SHT30;52639;51.180;20.460;2023-03-26T19:54:28;2.08;80.91
65864;SHT30;52639;51.180;20.460;2023-03-26T19:58:38;2.14;80.40
65864;SHT30;52639;51.180;20.460;2023-03-26T20:02:45;2.14;80.06
65864;SHT30;52639;51.180;20.460;2023-03-26T20:06:49;2.05;80.18
65864;SHT30;52639;51.180;20.460;2023-03-26T20:10:54;1.97;80.49
65864;SHT30;52639;51.180;20.460;2023-03-26T20:15:13;1.82;80.00
65864;SHT30;52639;51.180;20.460;2023-03-26T20:19:20;1.75;80.99
65864;SHT30;52639;51.180;20.460;2023-03-26T20:23:23;1.59;81.63
65864;SHT30;52639;51.180;20.460;2023-03-26T20:27:30;1.71;82.15
65864;SHT30;52639;51.180;20.460;2023-03-26T20:31:34;1.63;81.61
65864;SHT30;52639;51.180;20.460;2023-03-26T20:35:44;1.53;81.10
65864;SHT30;52639;51.180;20.460;2023-03-26T20:39:49;1.39;81.39
65864;SHT30;52639;51.180;20.460;2023-03-26T20:43:52;1.16;81.61
65864;SHT30;52639;51.180;20.460;2023-03-26T20:47:57;1.37;82.31
65864;SHT30;52639;51.180;20.460;2023-03-26T20:52:02;1.32;81.56
65864;SHT30;52639;51.180;20.460;2023-03-26T20:56:09;1.03;81.47
65864;SHT30;52639;51.180;20.460;2023-03-26T21:00:16;0.86;81.61
65864;SHT30;52639;51.180;20.460;2023-03-26T21:04:22;0.78;82.24
65864;SHT30;52639;51.180;20.460;2023-03-26T21:08:28;1.02;81.91
65864;SHT30;52639;51.180;20.460;2023-03-26T21:12:40;0.95;81.94
65864;SHT30;52639;51.180;20.460;2023-03-26T21:16:46;1.17;82.40
65864;SHT30;52639;51.180;20.460;2023-03-26T21:20:57;1.19;81.52
65864;SHT30;52639;51.180;20.460;2023-03-26T21:25:15;1.12;81.19
65864;SHT30;52639;51.180;20.460;2023-03-26T21:29:20;1.16;81.86
65864;SHT30;52639;51.180;20.460;2023-03-26T21:33:24;1.22;82.34
65864;SHT30;52639;51.180;20.460;2023-03-26T21:37:27;1.33;82.20
65864;SHT30;52639;51.180;20.460;2023-03-26T21:41:39;1.46;81.33
65864;SHT30;52639;51.180;20.460;2023-03-26T21:45:44;1.51;81.57
65864;SHT30;52639;51.180;20.460;2023-03-26T21:49:48;1.67;81.58
65864;SHT30;52639;51.180;20.460;2023-03-26T21:53:51;1.75;81.41
65864;SHT30;52639;51.180;20.460;2023-03-26T21:58:07;1.85;81.36
65864;SHT30;52639;51.180;20.460;2023-03-26T22:02:19;1.93;81.26
65864;SHT30;52639;51.180;20.460;2023-03-26T22:06:28;1.98;81.37
65864;SHT30;52639;51.180;20.460;2023-03-26T22:10:32;2.04;81.51
65864;SHT30;52639;51.180;20.460;2023-03-26T22:14:36;2.02;81.53
65864;SHT30;52639;51.180;20.460;2023-03-26T22:18:39;2.07;82.15
65864;SHT30;52639;51.180;20.460;2023-03-26T22:22:44;2.21;82.18
65864;SHT30;52639;51.180;20.460;2023-03-26T22:26:49;2.25;82.51
65864;SHT30;52639;51.180;20.460;2023-03-26T22:30:53;2.24;82.32
65864;SHT30;52639;51.180;20.460;2023-03-26T22:34:56;2.28;82.33
65864;SHT30;52639;51.180;20.460;2023-03-26T22:38:59;2.34;82.37
65864;SHT30;52639;51.180;20.460;2023-03-26T22:43:02;2.38;82.58
65864;SHT30;52639;51.180;20.460;2023-03-26T22:47:06;2.44;82.41
65864;SHT30;52639;51.180;20.460;2023-03-26T22:51:09;2.48;83.00
65864;SHT30;52639;51.180;20.460;2023-03-26T22:55:12;2.58;82.74
65864;SHT30;52639;51.180;20.460;2023-03-26T22:59:15;2.66;82.51
65864;SHT30;52639;51.180;20.460;2023-03-26T23:03:20;2.73;82.39
65864;SHT30;52639;51.180;20.460;2023-03-26T23:07:24;2.75;83.34
65864;SHT30;52639;51.180;20.460;2023-03-26T23:11:27;2.79;82.72
65864;SHT30;52639;51.180;20.460;2023-03-26T23:15:30;2.85;82.60
65864;SHT30;52639;51.180;20.460;2023-03-26T23:19:35;2.86;82.65
65864;SHT30;52639;51.180;20.460;2023-03-26T23:23:39;2.97;82.53
65864;SHT30;52639;51.180;20.460;2023-03-26T23:27:42;3.04;82.31
65864;SHT30;52639;51.180;20.460;2023-03-26T23:31:45;3.09;83.05
65864;SHT30;52639;51.180;20.460;2023-03-26T23:35:52;3.13;82.76
65864;SHT30;52639;51.180;20.460;2023-03-26T23:39:58;3.23;82.55
65864;SHT30;52639;51.180;20.460;2023-03-26T23:44:00;3.24;82.71
65864;SHT30;52639;51.180;20.460;2023-03-26T23:48:04;3.28;82.60
65864;SHT30;52639;51.180;20.460;2023-03-26T23:52:08;3.30;82.62
65864;SHT30;52639;51.180;20.460;2023-03-26T23:56:12;3.30;82.79
